sensor_id;sensor_type;location;lat;lon;timestamp;temperature;humidity
20590;DHT22;10453;50.810;12.540;2022-10-16T00:00:19;16.10;99.90
20590;DHT22;10453;50.810;12.540;2022-10-16T00:04:36;16.10;99.90
20590;DHT22;10453;50.810;12.540;2022-10-16T00:08:54;16.20;99.90
20590;DHT22;10453;50.810;12.540;2022-10-16T00:13:11;16.20;99.90
20590;DHT22;10453;50.810;12.540;2022-10-16T00:17:30;16.20;99.90
20590;DHT22;10453;50.810;12.540;2022-10-16T00:21:47;16.30;99.90
20590;DHT22;10453;50.810;12.540;2022-10-16T00:26:08;16.40;99.90
20590;DHT22;10453;50.810;12.540;2022-10-16T00:30:25;16.40;99.90
20590;DHT22;10453;50.810;12.540;2022-10-16T00:34:45;16.40;99.90
20590;DHT22;10453;50.810;12.540;2022-10-16T00:39:03;16.30;99.90
20590;DHT22;10453;50.810;12.540;2022-10-16T00:43:49;16.40;99.90
20590;DHT22;10453;50.810;12.540;2022-10-16T00:48:11;16.30;99.90
20590;DHT22;10453;50.810;12.540;2022-10-16T00:52:29;16.30;99.90
20590;DHT22;10453;50.810;12.540;2022-10-16T00:56:47;16.40;99.90
20590;DHT22;10453;50.810;12.540;2022-10-16T01:01:05;16.40;99.90
20590;DHT22;10453;50.810;12.540;2022-10-16T01:05:25;16.30;99.90
20590;DHT22;10453;50.810;12.540;2022-10-16T01:14:15;16.10;99.90
20590;DHT22;10453;50.810;12.540;2022-10-16T01:18:39;16.10;99.90
20590;DHT22;10453;50.810;12.540;2022-10-16T01:27:42;15.90;99.90
20590;DHT22;10453;50.810;12.540;2022-10-16T01:32:55;15.90;99.90
20590;DHT22;10453;50.810;12.540;2022-10-16T01:36:55;15.80;99.90
20590;DHT22;10453;50.810;12.540;2022-10-16T01:41:24;15.80;99.90
20590;DHT22;10453;50.810;12.540;2022-10-16T01:45:45;15.80;99.90
20590;DHT22;10453;50.810;12.540;2022-10-16T01:50:05;15.70;99.90
20590;DHT22;10453;50.810;12.540;2022-10-16T01:54:26;15.80;99.90
20590;DHT22;10453;50.810;12.540;2022-10-16T01:58:50;15.80;99.90
20590;DHT22;10453;50.810;12.540;2022-10-16T02:03:12;15.90;99.90
20590;DHT22;10453;50.810;12.540;2022-10-16T02:07:31;16.00;99.90
20590;DHT22;10453;50.810;12.540;2022-10-16T02:11:51;15.90;99.90
20590;DHT22;10453;50.810;12.540;2022-10-16T02:16:11;15.90;99.90
20590;DHT22;10453;50.810;12.540;2022-10-16T02:20:35;16.00;99.90
20590;DHT22;10453;50.810;12.540;2022-10-16T02:25:00;15.90;99.90
20590;DHT22;10453;50.810;12.540;2022-10-16T02:29:22;15.90;99.90
20590;DHT22;10453;50.810;12.540;2022-10-16T02:33:45;15.90;99.90
20590;DHT22;10453;50.810;12.540;2022-10-16T02:38:03;15.90;99.90
20590;DHT22;10453;50.810;12.540;2022-10-16T02:42:37;15.90;99.90
20590;DHT22;10453;50.810;12.540;2022-10-16T02:46:55;15.90;99.90
20590;DHT22;10453;50.810;12.540;2022-10-16T02:51:12;15.80;99.90
20590;DHT22;10453;50.810;12.540;2022-10-16T02:55:30;15.90;99.90
20590;DHT22;10453;50.810;12.540;2022-10-16T02:59:47;15.90;99.90
20590;DHT22;10453;50.810;12.540;2022-10-16T03:04:05;15.90;99.90
20590;DHT22;10453;50.810;12.540;2022-10-16T03:08:22;15.90;99.90
20590;DHT22;10453;50.810;12.540;2022-10-16T03:12:42;15.90;99.90
20590;DHT22;10453;50.810;12.540;2022-10-16T03:16:59;15.90;99.90
20590;DHT22;10453;50.810;12.540;2022-10-16T03:21:17;15.90;99.90
20590;DHT22;10453;50.810;12.540;2022-10-16T03:25:34;15.90;99.90
20590;DHT22;10453;50.810;12.540;2022-10-16T03:29:52;15.90;99.90
20590;DHT22;10453;50.810;12.540;2022-10-16T03:34:09;15.90;99.90
20590;DHT22;10453;50.810;12.540;2022-10-16T03:38:27;16.00;99.90
20590;DHT22;10453;50.810;12.540;2022-10-16T03:42:45;16.00;99.90
20590;DHT22;10453;50.810;12.540;2022-10-16T03:47:02;16.00;99.90
20590;DHT22;10453;50.810;12.540;2022-10-16T03:51:20;16.10;99.90
20590;DHT22;10453;50.810;12.540;2022-10-16T03:55:37;16.10;99.90
20590;DHT22;10453;50.810;12.540;2022-10-16T03:59:54;16.10;99.90
20590;DHT22;10453;50.810;12.540;2022-10-16T04:04:13;16.00;99.90
20590;DHT22;10453;50.810;12.540;2022-10-16T04:08:31;16.00;99.90
20590;DHT22;10453;50.810;12.540;2022-10-16T04:12:51;15.90;99.90
20590;DHT22;10453;50.810;12.540;2022-10-16T04:17:08;15.90;99.90
20590;DHT22;10453;50.810;12.540;2022-10-16T04:21:26;15.90;99.90
20590;DHT22;10453;50.810;12.540;2022-10-16T04:25:43;15.90;99.90
20590;DHT22;10453;50.810;12.540;2022-10-16T04:30:01;15.90;99.90
20590;DHT22;10453;50.810;12.540;2022-10-16T04:34:18;15.90;99.90
20590;DHT22;10453;50.810;12.540;2022-10-16T04:38:38;15.80;99.90
20590;DHT22;10453;50.810;12.540;2022-10-16T04:42:58;15.70;99.90
20590;DHT22;10453;50.810;12.540;2022-10-16T04:47:16;15.60;99.90
20590;DHT22;10453;50.810;12.540;2022-10-16T04:51:33;15.50;99.90
20590;DHT22;10453;50.810;12.540;2022-10-16T04:55:50;15.60;99.90
20590;DHT22;10453;50.810;12.540;2022-10-16T05:00:08;15.50;99.90
20590;DHT22;10453;50.810;12.540;2022-10-16T05:04:26;15.50;99.90
20590;DHT22;10453;50.810;12.540;2022-10-16T05:08:43;15.40;99.90
20590;DHT22;10453;50.810;12.540;2022-10-16T05:13:01;15.40;99.90
20590;DHT22;10453;50.810;12.540;2022-10-16T05:17:18;15.60;99.90
20590;DHT22;10453;50.810;12.540;2022-10-16T05:21:35;15.60;99.90
20590;DHT22;10453;50.810;12.540;2022-10-16T05:25:58;15.60;99.90
20590;DHT22;10453;50.810;12.540;2022-10-16T05:30:17;15.70;99.90
20590;DHT22;10453;50.810;12.540;2022-10-16T05:34:34;15.90;99.90
20590;DHT22;10453;50.810;12.540;2022-10-16T05:38:55;15.90;99.90
20590;DHT22;10453;50.810;12.540;2022-10-16T05:43:28;15.90;99.90
20590;DHT22;10453;50.810;12.540;2022-10-16T05:47:45;15.80;99.90
20590;DHT22;10453;50.810;12.540;2022-10-16T05:52:03;15.80;99.90
20590;DHT22;10453;50.810;12.540;2022-10-16T05:56:20;15.90;99.90
20590;DHT22;10453;50.810;12.540;2022-10-16T06:00:38;15.80;99.90
20590;DHT22;10453;50.810;12.540;2022-10-16T06:04:55;15.80;99.90
20590;DHT22;10453;50.810;12.540;2022-10-16T06:09:17;15.80;99.90
20590;DHT22;10453;50.810;12.540;2022-10-16T06:13:34;15.80;99.90
20590;DHT22;10453;50.810;12.540;2022-10-16T06:17:52;15.70;99.90
20590;DHT22;10453;50.810;12.540;2022-10-16T06:22:09;15.60;99.90
20590;DHT22;10453;50.810;12.540;2022-10-16T06:26:30;15.70;99.90
20590;DHT22;10453;50.810;12.540;2022-10-16T06:30:47;15.80;99.90
20590;DHT22;10453;50.810;12.540;2022-10-16T06:35:05;15.80;99.90
20590;DHT22;10453;50.810;12.540;2022-10-16T06:39:22;15.80;99.90
20590;DHT22;10453;50.810;12.540;2022-10-16T06:43:40;15.80;99.90
20590;DHT22;10453;50.810;12.540;2022-10-16T06:47:57;15.90;99.90
20590;DHT22;10453;50.810;12.540;2022-10-16T06:52:15;15.90;99.90
20590;DHT22;10453;50.810;12.540;2022-10-16T06:56:33;16.00;99.90
20590;DHT22;10453;50.810;12.540;2022-10-16T07:00:55;16.00;99.90
20590;DHT22;10453;50.810;12.540;2022-10-16T07:05:14;16.10;99.90
20590;DHT22;10453;50.810;12.540;2022-10-16T07:09:31;16.40;99.90
20590;DHT22;10453;50.810;12.540;2022-10-16T07:13:50;16.60;99.90
20590;DHT22;10453;50.810;12.540;2022-10-16T07:18:12;16.50;99.90
20590;DHT22;10453;50.810;12.540;2022-10-16T07:22:30;16.50;99.90
20590;DHT22;10453;50.810;12.540;2022-10-16T07:26:48;16.40;99.90
20590;DHT22;10453;50.810;12.540;2022-10-16T07:31:11;16.50;99.90
20590;DHT22;10453;50.810;12.540;2022-10-16T07:35:30;16.70;99.90
20590;DHT22;10453;50.810;12.540;2022-10-16T07:39:48;16.90;99.90
20590;DHT22;10453;50.810;12.540;2022-10-16T07:44:05;17.00;99.90
20590;DHT22;10453;50.810;12.540;2022-10-16T07:48:26;17.00;99.90
20590;DHT22;10453;50.810;12.540;2022-10-16T07:52:44;17.20;99.90
20590;DHT22;10453;50.810;12.540;2022-10-16T07:57:03;17.40;99.90
20590;DHT22;10453;50.810;12.540;2022-10-16T08:01:20;17.60;99.90
20590;DHT22;10453;50.810;12.540;2022-10-16T08:05:38;17.80;99.90
20590;DHT22;10453;50.810;12.540;2022-10-16T08:09:56;18.00;99.90
20590;DHT22;10453;50.810;12.540;2022-10-16T08:14:15;18.00;99.90
20590;DHT22;10453;50.810;12.540;2022-10-16T08:18:33;18.20;99.90
20590;DHT22;10453;50.810;12.540;2022-10-16T08:22:50;18.30;99.90
20590;DHT22;10453;50.810;12.540;2022-10-16T08:27:08;18.50;99.90
20590;DHT22;10453;50.810;12.540;2022-10-16T08:31:26;18.50;99.90
20590;DHT22;10453;50.810;12.540;2022-10-16T08:35:53;18.50;99.90
20590;DHT22;10453;50.810;12.540;2022-10-16T08:40:20;18.50;99.90
20590;DHT22;10453;50.810;12.540;2022-10-16T08:49:27;18.60;99.90
20590;DHT22;10453;50.810;12.540;2022-10-16T08:53:52;18.60;99.90
20590;DHT22;10453;50.810;12.540;2022-10-16T08:58:16;18.80;99.90
20590;DHT22;10453;50.810;12.540;2022-10-16T09:02:40;18.90;99.90
20590;DHT22;10453;50.810;12.540;2022-10-16T09:11:53;19.20;99.90
20590;DHT22;10453;50.810;12.540;2022-10-16T09:16:24;19.60;99.90
20590;DHT22;10453;50.810;12.540;2022-10-16T09:21:09;19.60;99.90
20590;DHT22;10453;50.810;12.540;2022-10-16T09:25:28;19.60;99.90
20590;DHT22;10453;50.810;12.540;2022-10-16T09:29:45;19.40;99.90
20590;DHT22;10453;50.810;12.540;2022-10-16T09:34:04;19.50;99.90
20590;DHT22;10453;50.810;12.540;2022-10-16T09:38:32;19.40;99.90
20590;DHT22;10453;50.810;12.540;2022-10-16T09:42:51;19.40;99.90
20590;DHT22;10453;50.810;12.540;2022-10-16T09:47:15;19.30;99.90
20590;DHT22;10453;50.810;12.540;2022-10-16T09:51:37;19.20;99.90
20590;DHT22;10453;50.810;12.540;2022-10-16T09:55:54;19.30;99.90
20590;DHT22;10453;50.810;12.540;2022-10-16T10:00:16;19.60;99.90
20590;DHT22;10453;50.810;12.540;2022-10-16T10:04:51;20.00;99.90
20590;DHT22;10453;50.810;12.540;2022-10-16T10:09:26;20.00;99.90
20590;DHT22;10453;50.810;12.540;2022-10-16T10:13:44;19.90;99.90
20590;DHT22;10453;50.810;12.540;2022-10-16T10:18:02;19.70;99.90
20590;DHT22;10453;50.810;12.540;2022-10-16T10:22:26;19.90;99.90
20590;DHT22;10453;50.810;12.540;2022-10-16T10:26:54;20.10;99.90
20590;DHT22;10453;50.810;12.540;2022-10-16T10:31:25;20.30;99.90
20590;DHT22;10453;50.810;12.540;2022-10-16T10:36:05;20.20;99.90
20590;DHT22;10453;50.810;12.540;2022-10-16T10:45:31;20.10;99.90
20590;DHT22;10453;50.810;12.540;2022-10-16T10:54:38;20.60;99.90
20590;DHT22;10453;50.810;12.540;2022-10-16T11:04:18;20.80;99.90
20590;DHT22;10453;50.810;12.540;2022-10-16T11:08:45;21.60;99.90
20590;DHT22;10453;50.810;12.540;2022-10-16T11:17:55;21.90;99.90
20590;DHT22;10453;50.810;12.540;2022-10-16T11:22:26;21.90;99.90
20590;DHT22;10453;50.810;12.540;2022-10-16T11:26:46;22.20;99.90
20590;DHT22;10453;50.810;12.540;2022-10-16T11:31:29;22.30;99.90
20590;DHT22;10453;50.810;12.540;2022-10-16T11:36:20;22.40;99.90
20590;DHT22;10453;50.810;12.540;2022-10-16T11:40:41;23.70;99.90
20590;DHT22;10453;50.810;12.540;2022-10-16T11:45:03;23.40;99.90
20590;DHT22;10453;50.810;12.540;2022-10-16T11:49:26;23.40;99.90
20590;DHT22;10453;50.810;12.540;2022-10-16T11:53:58;23.30;99.90
20590;DHT22;10453;50.810;12.540;2022-10-16T12:07:24;21.60;99.90
20590;DHT22;10453;50.810;12.540;2022-10-16T12:11:43;21.10;99.90
20590;DHT22;10453;50.810;12.540;2022-10-16T12:16:21;20.50;99.90
20590;DHT22;10453;50.810;12.540;2022-10-16T12:20:38;20.10;99.90
20590;DHT22;10453;50.810;12.540;2022-10-16T12:25:03;19.90;99.90
20590;DHT22;10453;50.810;12.540;2022-10-16T12:29:37;19.80;99.90
20590;DHT22;10453;50.810;12.540;2022-10-16T12:33:57;19.90;99.90
20590;DHT22;10453;50.810;12.540;2022-10-16T12:38:18;20.00;99.90
20590;DHT22;10453;50.810;12.540;2022-10-16T12:42:36;20.20;99.90
20590;DHT22;10453;50.810;12.540;2022-10-16T12:46:53;20.60;99.90
20590;DHT22;10453;50.810;12.540;2022-10-16T13:09:34;20.30;99.90
20590;DHT22;10453;50.810;12.540;2022-10-16T13:18:51;20.30;99.90
20590;DHT22;10453;50.810;12.540;2022-10-16T13:28:05;20.30;99.90
20590;DHT22;10453;50.810;12.540;2022-10-16T13:32:23;20.40;99.90
20590;DHT22;10453;50.810;12.540;2022-10-16T13:36:49;20.80;99.90
20590;DHT22;10453;50.810;12.540;2022-10-16T13:41:16;20.80;99.90
20590;DHT22;10453;50.810;12.540;2022-10-16T13:45:34;20.80;99.90
20590;DHT22;10453;50.810;12.540;2022-10-16T13:50:27;20.80;99.90
20590;DHT22;10453;50.810;12.540;2022-10-16T13:54:45;20.80;99.90
20590;DHT22;10453;50.810;12.540;2022-10-16T13:59:20;20.60;99.90
20590;DHT22;10453;50.810;12.540;2022-10-16T14:03:39;20.50;99.90
20590;DHT22;10453;50.810;12.540;2022-10-16T14:07:58;20.60;99.90
20590;DHT22;10453;50.810;12.540;2022-10-16T14:12:16;20.80;99.90
20590;DHT22;10453;50.810;12.540;2022-10-16T14:16:33;20.80;99.90
20590;DHT22;10453;50.810;12.540;2022-10-16T14:20:51;20.50;99.90
20590;DHT22;10453;50.810;12.540;2022-10-16T14:25:27;20.40;99.90
20590;DHT22;10453;50.810;12.540;2022-10-16T14:29:45;20.50;99.90
20590;DHT22;10453;50.810;12.540;2022-10-16T14:34:02;20.50;99.90
20590;DHT22;10453;50.810;12.540;2022-10-16T14:38:20;20.40;99.90
20590;DHT22;10453;50.810;12.540;2022-10-16T14:42:43;20.30;99.90
20590;DHT22;10453;50.810;12.540;2022-10-16T14:47:13;20.40;99.90
20590;DHT22;10453;50.810;12.540;2022-10-16T14:51:31;20.40;99.90
20590;DHT22;10453;50.810;12.540;2022-10-16T14:55:49;20.60;99.90
20590;DHT22;10453;50.810;12.540;2022-10-16T15:00:20;20.70;99.90
20590;DHT22;10453;50.810;12.540;2022-10-16T15:04:38;20.80;99.90
20590;DHT22;10453;50.810;12.540;2022-10-16T15:08:56;20.50;99.90
20590;DHT22;10453;50.810;12.540;2022-10-16T15:13:14;20.50;99.90
20590;DHT22;10453;50.810;12.540;2022-10-16T15:17:31;20.70;99.90
20590;DHT22;10453;50.810;12.540;2022-10-16T15:21:49;20.50;99.90
20590;DHT22;10453;50.810;12.540;2022-10-16T15:26:07;20.50;99.90
20590;DHT22;10453;50.810;12.540;2022-10-16T15:30:25;20.40;99.90
20590;DHT22;10453;50.810;12.540;2022-10-16T15:34:43;20.30;99.90
20590;DHT22;10453;50.810;12.540;2022-10-16T15:39:00;20.20;99.90
20590;DHT22;10453;50.810;12.540;2022-10-16T15:43:18;20.20;99.90
20590;DHT22;10453;50.810;12.540;2022-10-16T15:47:36;19.90;99.90
20590;DHT22;10453;50.810;12.540;2022-10-16T15:51:57;19.90;99.90
20590;DHT22;10453;50.810;12.540;2022-10-16T15:56:14;19.70;99.90
20590;DHT22;10453;50.810;12.540;2022-10-16T16:00:32;19.50;99.90
20590;DHT22;10453;50.810;12.540;2022-10-16T16:04:50;19.20;99.90
20590;DHT22;10453;50.810;12.540;2022-10-16T16:09:07;18.80;99.90
20590;DHT22;10453;50.810;12.540;2022-10-16T16:13:25;18.50;99.90
20590;DHT22;10453;50.810;12.540;2022-10-16T16:17:42;18.20;99.90
20590;DHT22;10453;50.810;12.540;2022-10-16T16:22:01;18.00;99.90
20590;DHT22;10453;50.810;12.540;2022-10-16T16:26:23;17.60;99.90
20590;DHT22;10453;50.810;12.540;2022-10-16T16:30:43;17.50;99.90
20590;DHT22;10453;50.810;12.540;2022-10-16T16:35:01;17.50;99.90
20590;DHT22;10453;50.810;12.540;2022-10-16T16:39:19;17.40;99.90
20590;DHT22;10453;50.810;12.540;2022-10-16T16:43:37;17.40;99.90
20590;DHT22;10453;50.810;12.540;2022-10-16T16:47:54;17.30;99.90
20590;DHT22;10453;50.810;12.540;2022-10-16T16:52:12;17.10;99.90
20590;DHT22;10453;50.810;12.540;2022-10-16T16:56:30;16.80;99.90
20590;DHT22;10453;50.810;12.540;2022-10-16T17:00:49;16.60;99.90
20590;DHT22;10453;50.810;12.540;2022-10-16T17:05:13;16.40;99.90
20590;DHT22;10453;50.810;12.540;2022-10-16T17:09:32;16.30;99.90
20590;DHT22;10453;50.810;12.540;2022-10-16T17:13:50;16.10;99.90
20590;DHT22;10453;50.810;12.540;2022-10-16T17:18:13;15.90;99.90
20590;DHT22;10453;50.810;12.540;2022-10-16T17:22:32;15.70;99.90
20590;DHT22;10453;50.810;12.540;2022-10-16T17:26:49;15.50;99.90
20590;DHT22;10453;50.810;12.540;2022-10-16T17:31:15;15.40;99.90
20590;DHT22;10453;50.810;12.540;2022-10-16T17:35:41;15.20;99.90
20590;DHT22;10453;50.810;12.540;2022-10-16T17:40:01;15.10;99.90
20590;DHT22;10453;50.810;12.540;2022-10-16T17:44:18;15.10;99.90
20590;DHT22;10453;50.810;12.540;2022-10-16T17:48:41;15.10;99.90
20590;DHT22;10453;50.810;12.540;2022-10-16T17:52:59;15.10;99.90
20590;DHT22;10453;50.810;12.540;2022-10-16T17:57:17;15.30;99.90
20590;DHT22;10453;50.810;12.540;2022-10-16T18:01:36;15.50;99.90
20590;DHT22;10453;50.810;12.540;2022-10-16T18:05:56;15.50;99.90
20590;DHT22;10453;50.810;12.540;2022-10-16T18:10:14;15.60;99.90
20590;DHT22;10453;50.810;12.540;2022-10-16T18:14:37;15.60;99.90
20590;DHT22;10453;50.810;12.540;2022-10-16T18:18:56;15.70;99.90
20590;DHT22;10453;50.810;12.540;2022-10-16T18:23:14;15.80;99.90
20590;DHT22;10453;50.810;12.540;2022-10-16T18:27:32;15.80;99.90
20590;DHT22;10453;50.810;12.540;2022-10-16T18:31:51;15.80;99.90
20590;DHT22;10453;50.810;12.540;2022-10-16T18:36:10;15.90;99.90
20590;DHT22;10453;50.810;12.540;2022-10-16T18:40:28;15.90;99.90
20590;DHT22;10453;50.810;12.540;2022-10-16T18:44:45;16.00;99.90
20590;DHT22;10453;50.810;12.540;2022-10-16T18:49:08;16.10;99.90
20590;DHT22;10453;50.810;12.540;2022-10-16T18:53:26;16.20;99.90
20590;DHT22;10453;50.810;12.540;2022-10-16T18:57:45;16.30;99.90
20590;DHT22;10453;50.810;12.540;2022-10-16T19:02:02;16.40;99.90
20590;DHT22;10453;50.810;12.540;2022-10-16T19:06:20;16.40;99.90
20590;DHT22;10453;50.810;12.540;2022-10-16T19:10:38;16.40;99.90
20590;DHT22;10453;50.810;12.540;2022-10-16T19:14:58;16.40;99.90
20590;DHT22;10453;50.810;12.540;2022-10-16T19:19:16;16.50;99.90
20590;DHT22;10453;50.810;12.540;2022-10-16T19:23:35;16.50;99.90
20590;DHT22;10453;50.810;12.540;2022-10-16T19:27:53;16.50;99.90
20590;DHT22;10453;50.810;12.540;2022-10-16T19:32:11;16.40;99.90
20590;DHT22;10453;50.810;12.540;2022-10-16T19:36:31;16.30;99.90
20590;DHT22;10453;50.810;12.540;2022-10-16T19:40:48;16.10;99.90
20590;DHT22;10453;50.810;12.540;2022-10-16T19:45:06;16.00;99.90
20590;DHT22;10453;50.810;12.540;2022-10-16T19:49:24;15.80;99.90
20590;DHT22;10453;50.810;12.540;2022-10-16T19:53:42;15.60;99.90
20590;DHT22;10453;50.810;12.540;2022-10-16T19:58:00;15.40;99.90
20590;DHT22;10453;50.810;12.540;2022-10-16T20:02:17;15.10;99.90
20590;DHT22;10453;50.810;12.540;2022-10-16T20:06:35;15.00;99.90
20590;DHT22;10453;50.810;12.540;2022-10-16T20:10:54;14.90;99.90
20590;DHT22;10453;50.810;12.540;2022-10-16T20:15:11;14.70;99.90
20590;DHT22;10453;50.810;12.540;2022-10-16T20:19:29;14.60;99.90
20590;DHT22;10453;50.810;12.540;2022-10-16T20:23:46;14.40;99.90
20590;DHT22;10453;50.810;12.540;2022-10-16T20:28:06;14.30;99.90
20590;DHT22;10453;50.810;12.540;2022-10-16T20:32:24;14.10;99.90
20590;DHT22;10453;50.810;12.540;2022-10-16T20:36:41;13.90;99.90
20590;DHT22;10453;50.810;12.540;2022-10-16T20:41:03;13.90;99.90
20590;DHT22;10453;50.810;12.540;2022-10-16T20:45:20;14.00;99.90
20590;DHT22;10453;50.810;12.540;2022-10-16T20:49:38;14.00;99.90
20590;DHT22;10453;50.810;12.540;2022-10-16T20:53:59;14.00;99.90
20590;DHT22;10453;50.810;12.540;2022-10-16T20:58:17;14.00;99.90
20590;DHT22;10453;50.810;12.540;2022-10-16T21:02:34;14.00;99.90
20590;DHT22;10453;50.810;12.540;2022-10-16T21:06:52;14.00;99.90
20590;DHT22;10453;50.810;12.540;2022-10-16T21:11:15;14.00;99.90
20590;DHT22;10453;50.810;12.540;2022-10-16T21:15:33;14.00;99.90
20590;DHT22;10453;50.810;12.540;2022-10-16T21:19:51;14.10;99.90
20590;DHT22;10453;50.810;12.540;2022-10-16T21:24:09;14.20;99.90
20590;DHT22;10453;50.810;12.540;2022-10-16T21:28:32;14.20;99.90
20590;DHT22;10453;50.810;12.540;2022-10-16T21:32:50;14.20;99.90
20590;DHT22;10453;50.810;12.540;2022-10-16T21:37:08;14.10;99.90
20590;DHT22;10453;50.810;12.540;2022-10-16T21:41:27;14.00;99.90
20590;DHT22;10453;50.810;12.540;2022-10-16T21:45:46;13.90;99.90
20590;DHT22;10453;50.810;12.540;2022-10-16T21:50:04;13.80;99.90
20590;DHT22;10453;50.810;12.540;2022-10-16T21:54:23;13.60;99.90
20590;DHT22;10453;50.810;12.540;2022-10-16T21:58:41;13.60;99.90
20590;DHT22;10453;50.810;12.540;2022-10-16T22:02:58;13.40;99.90
20590;DHT22;10453;50.810;12.540;2022-10-16T22:07:16;13.40;99.90
20590;DHT22;10453;50.810;12.540;2022-10-16T22:11:36;13.20;99.90
20590;DHT22;10453;50.810;12.540;2022-10-16T22:15:54;13.10;99.90
20590;DHT22;10453;50.810;12.540;2022-10-16T22:20:12;13.10;99.90
20590;DHT22;10453;50.810;12.540;2022-10-16T22:24:30;13.10;99.90
20590;DHT22;10453;50.810;12.540;2022-10-16T22:28:54;13.00;99.90
20590;DHT22;10453;50.810;12.540;2022-10-16T22:33:12;12.90;99.90
20590;DHT22;10453;50.810;12.540;2022-10-16T22:37:29;12.90;99.90
20590;DHT22;10453;50.810;12.540;2022-10-16T22:41:48;12.80;99.90
20590;DHT22;10453;50.810;12.540;2022-10-16T22:46:08;12.80;99.90
20590;DHT22;10453;50.810;12.540;2022-10-16T22:50:26;12.80;99.90
20590;DHT22;10453;50.810;12.540;2022-10-16T22:54:44;12.70;99.90
20590;DHT22;10453;50.810;12.540;2022-10-16T22:59:02;12.60;99.90
20590;DHT22;10453;50.810;12.540;2022-10-16T23:03:19;12.50;99.90
20590;DHT22;10453;50.810;12.540;2022-10-16T23:07:37;12.50;99.90
20590;DHT22;10453;50.810;12.540;2022-10-16T23:11:54;12.50;99.90
20590;DHT22;10453;50.810;12.540;2022-10-16T23:16:14;12.60;99.90
20590;DHT22;10453;50.810;12.540;2022-10-16T23:20:32;12.60;99.90
20590;DHT22;10453;50.810;12.540;2022-10-16T23:24:49;12.50;99.90
20590;DHT22;10453;50.810;12.540;2022-10-16T23:29:08;12.40;99.90
20590;DHT22;10453;50.810;12.540;2022-10-16T23:33:26;12.40;99.90
20590;DHT22;10453;50.810;12.540;2022-10-16T23:37:44;12.10;99.90
20590;DHT22;10453;50.810;12.540;2022-10-16T23:42:01;12.20;99.90
20590;DHT22;10453;50.810;12.540;2022-10-16T23:46:19;12.20;99.90
20590;DHT22;10453;50.810;12.540;2022-10-16T23:50:37;12.20;99.90
20590;DHT22;10453;50.810;12.540;2022-10-16T23:54:54;12.20;99.90
20590;DHT22;10453;50.810;12.540;2022-10-16T23:59:11;12.10;99.90
